Time;durP1;ratioP1;P1;durP2;ratioP2;P2;SDS_P1;SDS_P2;PMS_P1;PMS_P2;Temp;Humidity;BMP_temperature;BMP_pressure;BME280_temperature;BME280_humidity;BME280_pressure;Samples;Min_cycle;Max_cycle;Signal;HPM_P1;HPM_P2
2022/07/17 00:00:55;;;;;;;1.10;0.40;;;16.30;99.90;;;;;;5035872;28;20657;-79
2022/07/17 00:03:26;;;;;;;0.57;0.32;;;16.50;99.90;;;;;;5048910;28;20189;-80
2022/07/17 00:05:56;;;;;;;0.75;0.40;;;16.60;99.90;;;;;;5034496;28;20269;-80
2022/07/17 00:08:27;;;;;;;0.88;0.30;;;16.70;99.90;;;;;;5040151;28;20202;-79
2022/07/17 00:10:58;;;;;;;0.80;0.40;;;16.80;99.90;;;;;;5053265;28;20190;-80
2022/07/17 00:13:30;;;;;;;0.88;0.40;;;16.80;99.90;;;;;;5051975;28;20661;-77
2022/07/17 00:16:01;;;;;;;0.70;0.55;;;16.90;99.90;;;;;;5052628;28;20193;-81
2022/07/17 00:18:32;;;;;;;1.05;0.50;;;17.00;99.90;;;;;;5044640;28;20268;-82
2022/07/17 00:21:02;;;;;;;0.45;0.45;;;17.10;99.90;;;;;;5052574;28;20539;-80
2022/07/17 00:23:33;;;;;;;0.20;0.20;;;17.20;99.90;;;;;;5051852;28;20551;-80
2022/07/17 00:26:03;;;;;;;1.15;0.30;;;17.50;99.90;;;;;;5046456;28;20190;-78
2022/07/17 00:28:36;;;;;;;0.30;0.20;;;17.60;99.90;;;;;;5047753;28;20194;-79
2022/07/17 00:31:07;;;;;;;0.52;0.40;;;17.70;99.90;;;;;;5052334;28;20661;-79
2022/07/17 00:33:38;;;;;;;0.22;0.22;;;17.80;99.90;;;;;;5044878;28;20277;-83
2022/07/17 00:36:08;;;;;;;0.25;0.22;;;18.00;99.90;;;;;;5048454;28;20193;-79
2022/07/17 00:38:39;;;;;;;0.40;0.30;;;18.10;99.90;;;;;;5046931;28;20241;-83
2022/07/17 00:41:10;;;;;;;0.50;0.30;;;18.30;99.90;;;;;;5052630;28;20604;-79
2022/07/17 00:43:42;;;;;;;6.05;2.22;;;18.30;99.90;;;;;;5052898;28;20653;-79
2022/07/17 00:46:13;;;;;;;23.15;14.55;;;18.40;99.90;;;;;;5047255;28;20193;-79
2022/07/17 00:48:44;;;;;;;15.05;9.23;;;18.40;99.90;;;;;;5049096;28;20194;-79
2022/07/17 00:51:15;;;;;;;13.25;7.50;;;18.50;99.90;;;;;;5037722;28;20190;-77
2022/07/17 00:53:46;;;;;;;6.85;4.10;;;18.60;99.90;;;;;;5050607;28;20283;-79
2022/07/17 00:56:19;;;;;;;2.85;0.55;;;18.70;99.90;;;;;;5046737;28;20185;-80
2022/07/17 00:58:53;;;;;;;2.15;1.48;;;18.70;99.90;;;;;;5042699;28;20221;-79
2022/07/17 01:01:23;;;;;;;1.15;0.93;;;18.80;99.90;;;;;;5048511;28;20190;-79
2022/07/17 01:03:54;;;;;;;1.20;0.50;;;18.80;99.90;;;;;;5040871;28;20192;-79
2022/07/17 01:06:25;;;;;;;0.25;0.25;;;18.90;99.90;;;;;;5048993;28;20181;-81
2022/07/17 01:08:56;;;;;;;0.35;0.35;;;19.00;99.90;;;;;;5049301;28;20197;-76
2022/07/17 01:11:27;;;;;;;0.38;0.25;;;19.00;99.90;;;;;;5047143;28;20277;-77
2022/07/17 01:14:00;;;;;;;0.70;0.40;;;19.00;99.90;;;;;;5042498;28;20198;-77
2022/07/17 01:16:31;;;;;;;0.40;0.40;;;19.10;99.90;;;;;;5050857;28;20629;-76
2022/07/17 01:19:02;;;;;;;2.60;0.40;;;19.20;99.90;;;;;;5043912;28;20233;-77
2022/07/17 01:21:44;;;;;;;0.30;0.30;;;19.20;99.90;;;;;;5049400;28;20646;-77
2022/07/17 01:24:15;;;;;;;2.97;0.40;;;19.30;99.90;;;;;;5045000;28;20185;-76
2022/07/17 01:26:47;;;;;;;2.15;0.50;;;19.30;99.90;;;;;;5052171;28;20240;-75
2022/07/17 01:29:18;;;;;;;1.02;0.50;;;19.40;99.90;;;;;;5044634;28;20193;-77
2022/07/17 01:31:49;;;;;;;0.30;0.30;;;19.40;99.90;;;;;;5049279;28;20198;-76
2022/07/17 01:34:19;;;;;;;0.57;0.30;;;19.50;99.90;;;;;;5038990;28;20271;-78
2022/07/17 01:36:52;;;;;;;2.03;0.35;;;19.60;99.90;;;;;;5033571;28;20201;-77
2022/07/17 01:39:52;;;;;;;0.30;0.30;;;19.60;99.90;;;;;;5040532;28;20577;-76
2022/07/17 01:42:14;;;;;;;0.40;0.40;;;19.70;99.90;;;;;;5036583;28;20205;-77
2022/07/17 01:44:44;;;;;;;1.90;0.50;;;19.80;99.90;;;;;;5044465;28;20657;-75
2022/07/17 01:47:17;;;;;;;0.68;0.50;;;19.90;99.90;;;;;;5039334;28;20198;-79
2022/07/17 01:49:48;;;;;;;2.63;1.98;;;19.90;99.90;;;;;;5047388;28;20185;-80
2022/07/17 01:52:21;;;;;;;0.68;0.60;;;19.90;99.90;;;;;;5047777;28;20835;-82
2022/07/17 01:54:52;;;;;;;1.08;0.43;;;20.00;99.90;;;;;;5044093;28;20201;-79
2022/07/17 01:57:24;;;;;;;0.55;0.40;;;20.00;99.90;;;;;;5052372;28;20193;-81
2022/07/17 01:59:54;;;;;;;2.47;0.30;;;20.10;99.90;;;;;;5032112;28;20221;-75
2022/07/17 02:02:25;;;;;;;2.20;0.30;;;20.10;99.90;;;;;;5047778;28;20189;-76
2022/07/17 02:04:56;;;;;;;0.38;0.30;;;20.10;99.90;;;;;;5041132;28;20270;-78
2022/07/17 02:07:28;;;;;;;0.90;0.32;;;20.20;99.90;;;;;;5047295;28;20655;-80
2022/07/17 02:09:59;;;;;;;0.75;0.73;;;20.30;99.90;;;;;;5043579;28;20185;-78
2022/07/17 02:12:30;;;;;;;0.95;0.25;;;20.40;99.90;;;;;;5045413;28;20200;-75
2022/07/17 02:15:00;;;;;;;1.83;0.93;;;20.50;99.90;;;;;;5047836;28;20198;-75
2022/07/17 02:17:31;;;;;;;1.25;0.40;;;20.60;99.90;;;;;;5047081;28;20209;-76
2022/07/17 02:20:02;;;;;;;5.18;3.55;;;20.70;99.90;;;;;;5050935;28;20213;-77
2022/07/17 02:22:34;;;;;;;23.98;15.57;;;20.60;99.90;;;;;;5039210;28;20186;-79
2022/07/17 02:25:05;;;;;;;36.92;23.40;;;20.60;99.90;;;;;;5051893;28;20841;-79
2022/07/17 02:27:36;;;;;;;10.32;6.65;;;20.60;99.90;;;;;;5055595;28;20194;-77
2022/07/17 02:30:09;;;;;;;4.75;3.33;;;20.60;99.90;;;;;;5052491;28;20197;-79
2022/07/17 02:32:40;;;;;;;3.97;2.00;;;20.80;99.90;;;;;;5053770;28;20189;-78
2022/07/17 02:35:12;;;;;;;11.55;7.78;;;20.90;99.90;;;;;;5055462;28;20225;-78
2022/07/17 02:37:45;;;;;;;2.50;1.92;;;20.90;99.90;;;;;;5050712;28;20193;-76
2022/07/17 02:40:19;;;;;;;2.45;0.60;;;20.90;99.90;;;;;;5054996;28;20237;-78
2022/07/17 02:42:50;;;;;;;2.92;0.70;;;20.90;99.90;;;;;;5055526;28;20193;-77
2022/07/17 02:45:24;;;;;;;1.75;0.30;;;20.90;99.90;;;;;;5055509;28;20189;-76
2022/07/17 02:47:55;;;;;;;1.33;0.40;;;20.80;99.90;;;;;;5053166;28;20192;-83
2022/07/17 02:50:26;;;;;;;1.30;0.43;;;20.80;99.90;;;;;;5049944;28;20232;-77
2022/07/17 02:52:59;;;;;;;0.75;0.20;;;20.90;99.90;;;;;;5054882;28;20553;-77
2022/07/17 02:55:30;;;;;;;2.47;0.28;;;20.90;99.90;;;;;;5052561;28;20640;-79
2022/07/17 02:58:00;;;;;;;0.80;0.30;;;20.90;99.90;;;;;;5055117;28;20185;-78
2022/07/17 03:00:31;;;;;;;3.92;0.25;;;20.90;99.90;;;;;;5055287;28;20209;-79
2022/07/17 03:03:02;;;;;;;1.90;0.30;;;20.80;99.90;;;;;;5055452;28;20280;-84
2022/07/17 03:05:33;;;;;;;0.90;0.40;;;20.80;99.90;;;;;;5054973;28;20186;-80
2022/07/17 03:08:05;;;;;;;2.38;0.32;;;20.80;99.90;;;;;;5053400;28;20198;-83
2022/07/17 03:10:36;;;;;;;2.38;0.30;;;20.90;99.90;;;;;;5046637;28;20198;-80
2022/07/17 03:13:07;;;;;;;2.15;0.43;;;20.90;99.90;;;;;;5045578;28;20231;-81
2022/07/17 03:15:37;;;;;;;1.50;0.30;;;21.00;99.90;;;;;;5054739;28;20197;-77
2022/07/17 03:18:08;;;;;;;0.98;0.20;;;20.90;99.90;;;;;;5053208;28;20571;-79
2022/07/17 03:20:39;;;;;;;1.55;0.40;;;20.80;99.90;;;;;;5050173;28;20217;-77
2022/07/17 03:23:12;;;;;;;0.90;0.25;;;20.90;99.90;;;;;;5054495;28;20202;-77
2022/07/17 03:25:42;;;;;;;0.82;0.40;;;20.90;99.90;;;;;;5056825;28;20189;-78
2022/07/17 03:28:13;;;;;;;1.50;0.20;;;20.80;99.90;;;;;;5054918;28;20186;-79
2022/07/17 03:30:44;;;;;;;2.30;0.30;;;20.80;99.90;;;;;;5054654;28;20197;-81
2022/07/17 03:33:14;;;;;;;0.32;0.22;;;20.80;99.90;;;;;;5054648;28;20186;-79
2022/07/17 03:35:45;;;;;;;2.60;0.38;;;20.70;99.90;;;;;;5054604;28;20229;-79
2022/07/17 03:38:17;;;;;;;0.73;0.25;;;20.70;99.90;;;;;;5051376;28;20189;-78
2022/07/17 03:40:48;;;;;;;2.05;0.40;;;20.70;99.90;;;;;;5043696;28;20549;-80
2022/07/17 03:43:19;;;;;;;0.68;0.30;;;20.70;99.90;;;;;;5053596;28;20217;-81
2022/07/17 03:45:50;;;;;;;0.63;0.35;;;20.80;99.90;;;;;;5054477;28;20181;-80
2022/07/17 03:48:21;;;;;;;1.02;0.40;;;20.80;99.90;;;;;;5054310;28;20186;-78
2022/07/17 03:50:51;;;;;;;0.32;0.30;;;20.80;99.90;;;;;;5044808;28;20190;-83
2022/07/17 03:53:24;;;;;;;0.55;0.30;;;20.80;99.90;;;;;;5054250;28;20193;-83
2022/07/17 03:55:54;;;;;;;0.70;0.40;;;20.70;99.90;;;;;;5053968;28;20672;-82
2022/07/17 03:58:25;;;;;;;0.50;0.30;;;20.70;99.90;;;;;;5050697;28;20232;-82
2022/07/17 04:00:56;;;;;;;0.85;0.22;;;20.70;99.90;;;;;;5051686;28;20221;-84
2022/07/17 04:03:27;;;;;;;0.68;0.30;;;20.70;99.90;;;;;;5050803;28;20224;-77
2022/07/17 04:05:58;;;;;;;0.88;0.40;;;20.70;99.90;;;;;;5053817;28;20649;-81
2022/07/17 04:08:31;;;;;;;1.45;0.30;;;20.70;99.90;;;;;;5050802;28;20182;-82
2022/07/17 04:11:02;;;;;;;1.15;0.60;;;20.70;99.90;;;;;;5054021;28;20236;-76
2022/07/17 04:13:32;;;;;;;0.60;0.32;;;20.70;99.50;;;;;;5053855;28;20190;-82
2022/07/17 04:16:03;;;;;;;1.85;0.32;;;20.70;99.20;;;;;;5053504;28;20645;-81
2022/07/17 04:18:35;;;;;;;1.65;0.40;;;20.70;99.10;;;;;;5053664;28;20217;-81
2022/07/17 04:21:07;;;;;;;2.90;0.30;;;20.60;99.70;;;;;;5053621;28;20224;-75
2022/07/17 04:23:40;;;;;;;2.78;0.32;;;20.70;99.20;;;;;;5057038;28;20251;-79
2022/07/17 04:26:11;;;;;;;0.38;0.38;;;20.60;99.90;;;;;;5052354;28;20270;-79
2022/07/17 04:28:42;;;;;;;0.93;0.50;;;20.60;98.50;;;;;;5057618;28;20201;-81
2022/07/17 04:31:12;;;;;;;1.02;0.30;;;20.60;99.10;;;;;;5060889;28;20206;-80
2022/07/17 04:33:43;;;;;;;0.40;0.40;;;20.60;98.60;;;;;;5053414;28;20582;-79
2022/07/17 04:36:14;;;;;;;0.60;0.30;;;20.50;99.00;;;;;;5053272;28;20656;-83
2022/07/17 04:38:46;;;;;;;0.30;0.30;;;20.50;98.50;;;;;;5053422;28;20560;-77
2022/07/17 04:41:18;;;;;;;1.63;0.30;;;20.50;97.50;;;;;;5052055;28;20606;-77
2022/07/17 04:43:48;;;;;;;0.68;0.60;;;20.50;98.70;;;;;;5060026;28;20246;-78
2022/07/17 04:46:19;;;;;;;0.38;0.38;;;20.50;97.90;;;;;;5052451;28;20668;-78
2022/07/17 04:48:50;;;;;;;1.23;0.30;;;20.50;96.70;;;;;;5048655;28;20187;-76
2022/07/17 04:51:20;;;;;;;0.32;0.30;;;20.50;97.00;;;;;;5046163;28;20193;-77
2022/07/17 04:53:53;;;;;;;1.08;0.32;;;20.50;97.40;;;;;;5063367;28;20236;-78
2022/07/17 04:56:24;;;;;;;0.25;0.25;;;20.50;97.50;;;;;;5047845;28;20189;-82
2022/07/17 04:58:54;;;;;;;1.42;0.70;;;20.50;97.20;;;;;;5050433;28;20203;-77
2022/07/17 05:01:25;;;;;;;1.05;0.70;;;20.40;98.00;;;;;;5053235;28;20217;-78
2022/07/17 05:03:55;;;;;;;0.63;0.50;;;20.50;98.20;;;;;;5052978;28;20641;-78
2022/07/17 05:06:26;;;;;;;1.00;0.50;;;20.40;98.00;;;;;;5053469;28;20194;-80
2022/07/17 05:08:59;;;;;;;0.30;0.22;;;20.40;98.00;;;;;;5043775;28;20190;-77
2022/07/17 05:11:29;;;;;;;0.50;0.20;;;20.30;97.40;;;;;;5033270;28;20209;-78
2022/07/17 05:14:00;;;;;;;0.52;0.28;;;20.40;96.30;;;;;;5033457;28;20205;-78
2022/07/17 05:16:31;;;;;;;1.55;0.32;;;20.40;97.20;;;;;;5033572;28;20198;-76
2022/07/17 05:19:04;;;;;;;0.30;0.20;;;20.30;97.30;;;;;;5048955;28;20716;-80
2022/07/17 05:21:35;;;;;;;0.38;0.30;;;20.30;97.00;;;;;;5048963;28;20221;-78
2022/07/17 05:24:08;;;;;;;0.60;0.35;;;20.20;96.90;;;;;;5041577;28;20194;-78
2022/07/17 05:26:39;;;;;;;1.98;0.30;;;20.20;97.30;;;;;;5053160;28;20194;-77
2022/07/17 05:29:12;;;;;;;0.70;0.22;;;20.20;98.20;;;;;;5052016;28;20703;-79
2022/07/17 05:31:43;;;;;;;1.40;0.38;;;20.20;97.70;;;;;;5052926;28;20198;-78
2022/07/17 05:34:14;;;;;;;0.57;0.30;;;20.10;98.10;;;;;;5052865;28;20233;-78
2022/07/17 05:36:45;;;;;;;0.40;0.40;;;20.10;98.40;;;;;;5034302;28;20198;-78
2022/07/17 05:39:18;;;;;;;0.43;0.20;;;20.10;97.70;;;;;;5033082;28;20592;-79
2022/07/17 05:41:49;;;;;;;0.57;0.30;;;20.10;97.20;;;;;;5032963;28;20222;-79
2022/07/17 05:44:19;;;;;;;1.35;0.40;;;20.10;97.30;;;;;;5034197;28;20564;-80
2022/07/17 05:46:50;;;;;;;1.65;0.20;;;20.10;97.90;;;;;;5050599;28;20634;-78
2022/07/17 05:49:20;;;;;;;0.20;0.20;;;20.00;97.50;;;;;;5052039;28;20186;-79
2022/07/17 05:51:51;;;;;;;1.23;0.25;;;20.00;97.30;;;;;;5033080;28;20190;-80
2022/07/17 05:54:24;;;;;;;0.60;0.40;;;19.90;98.20;;;;;;5041277;28;20189;-82
2022/07/17 05:56:54;;;;;;;3.65;0.30;;;19.90;98.00;;;;;;5038091;28;20197;-82
2022/07/17 05:59:25;;;;;;;1.95;0.40;;;19.90;98.60;;;;;;5059045;28;20734;-80
2022/07/17 06:01:56;;;;;;;0.30;0.30;;;19.80;98.30;;;;;;5058240;28;20691;-80
2022/07/17 06:04:27;;;;;;;2.30;0.43;;;19.80;98.50;;;;;;5060482;28;20224;-79
2022/07/17 06:06:57;;;;;;;0.50;0.32;;;19.70;98.30;;;;;;5064356;28;20648;-79
2022/07/17 06:09:30;;;;;;;0.50;0.38;;;19.70;98.50;;;;;;5063003;28;20189;-79
2022/07/17 06:12:01;;;;;;;2.10;0.47;;;19.70;98.30;;;;;;5058175;28;20641;-79
2022/07/17 06:14:31;;;;;;;1.08;0.35;;;19.60;97.80;;;;;;5058269;28;20193;-79
2022/07/17 06:17:02;;;;;;;2.90;0.50;;;19.60;97.20;;;;;;5057978;28;20193;-79
2022/07/17 06:19:33;;;;;;;0.60;0.40;;;19.50;98.00;;;;;;5061128;28;20648;-80
2022/07/17 06:22:03;;;;;;;0.47;0.40;;;19.50;97.60;;;;;;5064085;28;20217;-78
2022/07/17 06:24:36;;;;;;;0.47;0.40;;;19.40;98.10;;;;;;5060105;28;20197;-79
2022/07/17 06:27:07;;;;;;;0.80;0.50;;;19.40;98.20;;;;;;5061408;28;20660;-79
2022/07/17 06:29:37;;;;;;;2.88;0.40;;;19.30;98.70;;;;;;5058179;28;20199;-81
2022/07/17 06:32:08;;;;;;;2.72;0.38;;;19.20;99.10;;;;;;5057686;28;20185;-80
2022/07/17 06:34:39;;;;;;;0.90;0.60;;;19.20;98.10;;;;;;5057792;28;20228;-79
2022/07/17 06:37:10;;;;;;;0.25;0.25;;;19.10;98.50;;;;;;5057566;28;20189;-80
2022/07/17 06:39:43;;;;;;;3.30;0.32;;;19.10;98.30;;;;;;5058025;28;20187;-80
2022/07/17 06:42:13;;;;;;;0.50;0.50;;;19.00;98.70;;;;;;5063595;28;20193;-78
2022/07/17 06:44:44;;;;;;;1.20;0.57;;;18.90;98.20;;;;;;5064337;28;20185;-78
2022/07/17 06:47:15;;;;;;;1.30;0.40;;;18.80;98.50;;;;;;5053252;28;20187;-78
2022/07/17 06:49:46;;;;;;;0.50;0.50;;;18.80;97.90;;;;;;5031887;28;20205;-77
2022/07/17 06:52:16;;;;;;;0.43;0.40;;;18.70;98.10;;;;;;5031984;28;20198;-78
2022/07/17 06:54:49;;;;;;;1.27;0.50;;;18.60;98.50;;;;;;5039152;28;20190;-78
2022/07/17 06:57:19;;;;;;;1.15;0.60;;;18.60;98.40;;;;;;5048210;28;20182;-78
2022/07/17 06:59:50;;;;;;;0.70;0.50;;;18.50;98.40;;;;;;5032896;28;20187;-78
2022/07/17 07:02:21;;;;;;;1.30;0.63;;;18.40;98.10;;;;;;5049091;28;20192;-79
2022/07/17 07:04:51;;;;;;;0.57;0.43;;;18.30;98.00;;;;;;5042144;28;20597;-78
2022/07/17 07:07:22;;;;;;;2.38;0.40;;;18.20;97.90;;;;;;5031873;28;20555;-79
2022/07/17 07:09:54;;;;;;;0.82;0.50;;;18.20;98.50;;;;;;5049786;28;20194;-78
2022/07/17 07:12:25;;;;;;;1.02;0.50;;;18.20;98.20;;;;;;5053688;28;20209;-79
2022/07/17 07:14:56;;;;;;;0.60;0.40;;;18.00;98.40;;;;;;5055648;28;20599;-78
2022/07/17 07:17:27;;;;;;;1.05;0.50;;;18.00;97.50;;;;;;5055573;28;20217;-78
2022/07/17 07:19:57;;;;;;;0.85;0.40;;;18.00;97.70;;;;;;5055258;28;20201;-77
2022/07/17 07:22:28;;;;;;;0.65;0.47;;;17.90;97.80;;;;;;5055447;28;20189;-78
2022/07/17 07:25:01;;;;;;;0.68;0.45;;;17.90;98.10;;;;;;5055534;28;20189;-77
2022/07/17 07:27:31;;;;;;;0.40;0.40;;;17.90;98.20;;;;;;5055361;28;20197;-77
2022/07/17 07:30:02;;;;;;;2.00;0.63;;;17.70;98.20;;;;;;5055323;28;20192;-79
2022/07/17 07:32:33;;;;;;;1.00;0.60;;;17.70;98.30;;;;;;5055190;28;20185;-77
2022/07/17 07:35:03;;;;;;;0.65;0.60;;;17.60;98.50;;;;;;5055216;28;20569;-77
2022/07/17 07:37:34;;;;;;;0.93;0.60;;;17.60;98.70;;;;;;5055179;28;20185;-78
2022/07/17 07:40:08;;;;;;;1.23;0.70;;;17.50;98.70;;;;;;5055079;28;20189;-78
2022/07/17 07:42:39;;;;;;;1.42;0.50;;;17.50;98.80;;;;;;5055154;28;20185;-77
2022/07/17 07:45:11;;;;;;;0.70;0.50;;;17.40;99.10;;;;;;5055018;28;20182;-77
2022/07/17 07:47:45;;;;;;;1.25;0.60;;;17.40;98.70;;;;;;5054949;28;20193;-78
2022/07/17 07:50:16;;;;;;;1.05;0.60;;;17.40;99.10;;;;;;5054732;28;20702;-80
2022/07/17 07:52:47;;;;;;;3.78;0.65;;;17.40;99.10;;;;;;5036808;28;20186;-78
2022/07/17 07:55:21;;;;;;;0.88;0.63;;;17.40;99.00;;;;;;5050664;28;20192;-79
2022/07/17 07:57:51;;;;;;;0.82;0.60;;;17.40;99.50;;;;;;5051305;28;20192;-77
2022/07/17 08:00:22;;;;;;;0.90;0.70;;;17.30;99.10;;;;;;5034749;28;20194;-79
2022/07/17 08:02:53;;;;;;;2.45;0.60;;;17.30;99.60;;;;;;5058777;28;20196;-78
2022/07/17 08:05:24;;;;;;;2.58;0.50;;;17.30;99.20;;;;;;5074444;28;20189;-78
2022/07/17 08:07:54;;;;;;;0.50;0.50;;;17.30;99.20;;;;;;5074658;28;20189;-78
2022/07/17 08:10:27;;;;;;;1.10;0.70;;;17.30;99.20;;;;;;5041402;28;20668;-78
2022/07/17 08:12:58;;;;;;;1.13;0.80;;;17.20;99.20;;;;;;5045543;28;20194;-79
2022/07/17 08:15:28;;;;;;;1.05;0.80;;;17.20;99.30;;;;;;5043864;28;20182;-79
2022/07/17 08:17:59;;;;;;;1.90;0.90;;;17.20;99.90;;;;;;5052316;28;20689;-80
2022/07/17 08:20:30;;;;;;;2.65;0.73;;;17.10;99.90;;;;;;5045251;28;20197;-79
2022/07/17 08:23:00;;;;;;;0.60;0.60;;;17.10;99.90;;;;;;5046896;28;20185;-79
2022/07/17 08:25:33;;;;;;;1.20;0.60;;;17.00;99.90;;;;;;5052512;28;20247;-79
2022/07/17 08:28:04;;;;;;;0.70;0.50;;;17.00;99.90;;;;;;5052381;28;20194;-79
2022/07/17 08:30:36;;;;;;;2.15;0.60;;;16.90;99.90;;;;;;5054212;28;20197;-78
2022/07/17 08:33:08;;;;;;;1.33;0.70;;;16.90;99.90;;;;;;5053827;28;20281;-79
2022/07/17 08:35:39;;;;;;;1.90;0.77;;;16.90;99.90;;;;;;5040750;28;20705;-80
2022/07/17 08:38:10;;;;;;;1.40;0.80;;;16.90;99.90;;;;;;5034044;28;20201;-79
2022/07/17 08:40:43;;;;;;;0.75;0.60;;;17.00;99.90;;;;;;5033985;28;20194;-78
2022/07/17 08:43:14;;;;;;;2.20;0.70;;;17.00;99.90;;;;;;5033992;28;20201;-77
2022/07/17 08:45:45;;;;;;;1.05;0.60;;;16.90;99.90;;;;;;5046980;28;20194;-78
2022/07/17 08:48:17;;;;;;;0.70;0.70;;;16.90;99.90;;;;;;5053662;28;20193;-76
2022/07/17 08:50:49;;;;;;;0.93;0.50;;;16.90;99.90;;;;;;5038982;28;20699;-76
2022/07/17 08:53:20;;;;;;;1.83;0.90;;;16.90;99.90;;;;;;5033764;28;20194;-77
2022/07/17 08:55:52;;;;;;;1.10;1.00;;;16.90;99.90;;;;;;5039542;28;20190;-77
2022/07/17 08:58:23;;;;;;;2.20;1.08;;;16.80;99.90;;;;;;5036416;28;20193;-78
2022/07/17 09:00:54;;;;;;;0.75;0.70;;;16.80;99.90;;;;;;5048037;28;20210;-79
2022/07/17 09:03:25;;;;;;;1.60;1.00;;;16.80;99.90;;;;;;5053393;28;20645;-83
2022/07/17 09:05:56;;;;;;;1.58;0.98;;;16.80;99.90;;;;;;5053514;28;20198;-79
2022/07/17 09:08:29;;;;;;;1.67;1.00;;;16.90;99.90;;;;;;5053483;28;20197;-78
2022/07/17 09:11:02;;;;;;;4.15;1.05;;;16.80;99.90;;;;;;5045933;28;20213;-79
2022/07/17 09:13:33;;;;;;;1.90;1.02;;;16.80;99.90;;;;;;5048803;28;20190;-78
2022/07/17 09:16:12;;;;;;;2.10;0.60;;;16.80;99.90;;;;;;5053070;28;20550;-78
2022/07/17 09:18:47;;;;;;;3.03;0.80;;;16.80;99.90;;;;;;5052871;28;20252;-78
2022/07/17 09:21:22;;;;;;;3.13;1.10;;;16.90;99.90;;;;;;5053080;28;20213;-79
2022/07/17 09:24:02;;;;;;;2.80;1.60;;;16.70;99.90;;;;;;5052216;28;20200;-80
2022/07/17 09:26:37;;;;;;;3.03;1.40;;;16.80;99.90;;;;;;5053137;28;20661;-75
2022/07/17 09:29:08;;;;;;;1.77;1.40;;;16.70;99.90;;;;;;5052976;28;20189;-79
2022/07/17 09:31:38;;;;;;;2.55;1.58;;;16.50;99.90;;;;;;5052730;28;20193;-79
2022/07/17 09:34:19;;;;;;;2.15;1.40;;;16.50;99.90;;;;;;5032457;28;20269;-77
2022/07/17 09:37:00;;;;;;;1.40;1.30;;;16.50;99.90;;;;;;5033207;28;20264;-80
2022/07/17 09:39:38;;;;;;;1.65;1.35;;;16.50;99.90;;;;;;5033024;28;20232;-80
2022/07/17 09:42:11;;;;;;;2.10;1.70;;;16.40;99.90;;;;;;5035421;28;20217;-79
2022/07/17 09:44:41;;;;;;;2.60;1.75;;;16.30;99.90;;;;;;5052913;28;20209;-78
2022/07/17 09:47:12;;;;;;;2.40;1.70;;;16.20;99.90;;;;;;5052689;28;20557;-80
2022/07/17 09:49:43;;;;;;;2.45;1.63;;;16.20;99.90;;;;;;5052757;28;20193;-79
2022/07/17 09:52:15;;;;;;;1.98;1.40;;;16.20;99.90;;;;;;5049392;28;20194;-79
2022/07/17 09:54:47;;;;;;;1.90;1.40;;;16.20;99.90;;;;;;5032914;28;20276;-78
2022/07/17 09:57:20;;;;;;;1.95;1.10;;;16.10;99.90;;;;;;5033822;28;20190;-79
2022/07/17 09:59:53;;;;;;;1.02;0.90;;;16.00;99.90;;;;;;5032465;28;20190;-78
2022/07/17 10:02:24;;;;;;;1.60;1.20;;;15.90;99.90;;;;;;5045069;28;20217;-78
2022/07/17 10:04:56;;;;;;;0.80;0.73;;;15.80;99.90;;;;;;5052629;28;20194;-79
2022/07/17 10:07:26;;;;;;;2.88;0.75;;;15.70;99.90;;;;;;5052399;28;20201;-79
2022/07/17 10:09:58;;;;;;;1.00;0.70;;;15.60;99.90;;;;;;5051723;28;20193;-77
2022/07/17 10:12:30;;;;;;;1.63;0.70;;;15.50;99.90;;;;;;5048216;28;20186;-80
2022/07/17 10:15:01;;;;;;;2.30;1.40;;;15.40;99.90;;;;;;5052024;28;20185;-79
2022/07/17 10:17:32;;;;;;;2.00;1.00;;;15.40;99.90;;;;;;5051658;28;20870;-79
2022/07/17 10:20:03;;;;;;;1.05;0.80;;;15.30;99.90;;;;;;5050414;28;20196;-79
2022/07/17 10:22:44;;;;;;;1.13;0.80;;;15.20;99.90;;;;;;5051585;28;20210;-80
2022/07/17 10:25:18;;;;;;;1.55;0.70;;;15.10;99.90;;;;;;5051656;28;20186;-78
2022/07/17 10:27:56;;;;;;;0.63;0.60;;;15.10;99.90;;;;;;5051697;28;20193;-79
2022/07/17 10:30:31;;;;;;;0.90;0.85;;;15.10;99.90;;;;;;5048497;28;20566;-79
2022/07/17 10:33:03;;;;;;;1.52;1.10;;;15.00;99.90;;;;;;5050772;28;20276;-80
2022/07/17 10:35:47;;;;;;;2.42;1.60;;;14.90;99.90;;;;;;5045231;28;20229;-80
2022/07/17 10:38:19;;;;;;;2.33;1.50;;;14.80;99.90;;;;;;5050763;28;20192;-80
2022/07/17 10:40:49;;;;;;;3.60;2.67;;;14.70;99.90;;;;;;5051447;28;20189;-78
2022/07/17 10:43:22;;;;;;;3.78;3.10;;;14.50;99.90;;;;;;5050608;28;20995;-79
2022/07/17 10:45:52;;;;;;;3.50;2.70;;;14.40;99.90;;;;;;5045131;28;20193;-79
2022/07/17 10:48:24;;;;;;;3.47;2.15;;;14.40;99.90;;;;;;5054998;28;20197;-79
2022/07/17 10:50:56;;;;;;;1.50;1.40;;;14.30;99.90;;;;;;5052972;28;20189;-80
2022/07/17 10:53:30;;;;;;;1.95;1.00;;;14.40;99.90;;;;;;5051771;28;20633;-79
2022/07/17 10:56:04;;;;;;;2.70;0.90;;;14.40;99.90;;;;;;5055407;28;20552;-79
2022/07/17 10:58:39;;;;;;;2.75;0.90;;;14.40;99.90;;;;;;5054992;28;20205;-78
2022/07/17 11:01:12;;;;;;;1.92;1.10;;;14.40;99.90;;;;;;5055114;28;20201;-79
2022/07/17 11:03:44;;;;;;;3.65;1.00;;;14.50;99.90;;;;;;5054851;28;20263;-79
2022/07/17 11:06:18;;;;;;;4.80;1.13;;;14.40;99.90;;;;;;5055254;28;20194;-78
2022/07/17 11:08:52;;;;;;;1.67;1.10;;;14.40;99.90;;;;;;5055108;28;20667;-80
2022/07/17 11:11:23;;;;;;;3.67;1.15;;;14.30;99.90;;;;;;5055293;28;20659;-80
2022/07/17 11:13:56;;;;;;;3.22;1.63;;;14.20;99.90;;;;;;5048509;28;20197;-80
2022/07/17 11:16:33;;;;;;;2.97;1.67;;;14.10;99.90;;;;;;5051583;28;20201;-79
2022/07/17 11:19:04;;;;;;;2.50;1.20;;;13.90;99.90;;;;;;5053610;28;20729;-78
2022/07/17 11:21:35;;;;;;;1.70;1.20;;;14.00;99.90;;;;;;5054991;28;20685;-79
2022/07/17 11:24:06;;;;;;;1.45;1.20;;;14.00;99.90;;;;;;5052406;28;20223;-80
2022/07/17 11:26:37;;;;;;;1.15;0.95;;;14.00;99.90;;;;;;5050291;28;20564;-80
2022/07/17 11:29:09;;;;;;;2.67;1.20;;;13.90;99.90;;;;;;5054336;28;20455;-80
2022/07/17 11:31:40;;;;;;;1.33;1.10;;;13.90;99.90;;;;;;5054080;28;20217;-80
2022/07/17 11:34:11;;;;;;;1.30;0.90;;;13.90;99.90;;;;;;5054246;28;20233;-80
2022/07/17 11:36:43;;;;;;;1.70;0.90;;;13.90;99.90;;;;;;5054450;28;20648;-80
2022/07/17 11:39:15;;;;;;;1.58;0.80;;;13.90;99.90;;;;;;5054560;28;20197;-80
2022/07/17 11:41:50;;;;;;;1.35;0.80;;;14.00;99.90;;;;;;5048106;28;20681;-80
2022/07/17 11:44:24;;;;;;;0.88;0.70;;;14.10;99.90;;;;;;5053834;28;20196;-80
2022/07/17 11:46:58;;;;;;;2.05;0.75;;;14.10;99.90;;;;;;5052262;28;20196;-80
2022/07/17 11:49:31;;;;;;;1.00;0.77;;;14.10;99.90;;;;;;5048167;28;20609;-80
2022/07/17 11:52:08;;;;;;;0.80;0.77;;;14.10;99.90;;;;;;5052346;28;20220;-80
2022/07/17 11:54:48;;;;;;;1.80;1.00;;;14.10;99.90;;;;;;5054228;28;20272;-80
2022/07/17 11:57:19;;;;;;;1.48;0.80;;;14.10;99.90;;;;;;5053422;28;20592;-80
2022/07/17 11:59:53;;;;;;;0.60;0.60;;;14.10;99.90;;;;;;5051273;28;20609;-80
2022/07/17 12:02:31;;;;;;;1.75;0.70;;;14.10;99.90;;;;;;5050868;28;20209;-80
2022/07/17 12:05:03;;;;;;;1.15;0.80;;;14.10;99.90;;;;;;5044592;28;20230;-80
2022/07/17 12:07:44;;;;;;;1.60;0.68;;;14.10;99.90;;;;;;5053917;28;20190;-80
2022/07/17 12:10:19;;;;;;;0.70;0.70;;;14.20;99.90;;;;;;5052717;28;20190;-80
2022/07/17 12:13:00;;;;;;;1.10;0.80;;;14.10;99.90;;;;;;5053770;28;20684;-79
2022/07/17 12:15:43;;;;;;;2.15;0.70;;;14.10;99.90;;;;;;5049630;28;20211;-80
2022/07/17 12:18:25;;;;;;;2.47;0.80;;;14.10;99.90;;;;;;5053414;28;20221;-80
2022/07/17 12:20:57;;;;;;;1.73;0.60;;;14.10;99.90;;;;;;5050472;28;20197;-79
2022/07/17 12:23:33;;;;;;;3.15;0.70;;;14.20;99.90;;;;;;5050261;28;20245;-79
2022/07/17 12:26:12;;;;;;;2.00;0.60;;;14.10;99.90;;;;;;5053627;28;20185;-79
2022/07/17 12:28:46;;;;;;;0.90;0.70;;;14.10;99.90;;;;;;5053229;28;20189;-79
2022/07/17 12:31:20;;;;;;;1.25;0.70;;;14.10;99.90;;;;;;5052321;28;20192;-80
2022/07/17 12:33:51;;;;;;;1.30;0.63;;;14.10;99.90;;;;;;5053175;28;20225;-80
2022/07/17 12:36:22;;;;;;;1.05;0.68;;;14.10;99.90;;;;;;5052656;28;20185;-78
2022/07/17 12:38:53;;;;;;;0.60;0.60;;;14.10;99.90;;;;;;5053327;28;20194;-79
2022/07/17 12:41:23;;;;;;;2.55;0.70;;;14.10;99.90;;;;;;5053243;28;20190;-79
2022/07/17 12:43:54;;;;;;;2.00;0.65;;;14.00;99.90;;;;;;5053083;28;20210;-77
2022/07/17 12:46:27;;;;;;;2.05;1.23;;;14.00;99.90;;;;;;5052467;28;20187;-79
2022/07/17 12:48:57;;;;;;;1.02;0.70;;;13.90;99.90;;;;;;5052230;28;20197;-78
2022/07/17 12:51:28;;;;;;;3.60;0.80;;;13.90;99.90;;;;;;5049683;28;20197;-76
2022/07/17 12:53:59;;;;;;;0.68;0.60;;;13.80;99.90;;;;;;5052210;28;20581;-78
2022/07/17 12:56:30;;;;;;;1.35;0.95;;;13.80;99.90;;;;;;5049899;28;20193;-78
2022/07/17 12:59:01;;;;;;;2.40;1.10;;;13.80;99.90;;;;;;5053062;28;20634;-79
2022/07/17 13:01:33;;;;;;;0.90;0.63;;;13.60;99.90;;;;;;5052922;28;20189;-77
2022/07/17 13:04:04;;;;;;;1.55;0.60;;;13.60;99.90;;;;;;5051861;28;20208;-77
2022/07/17 13:06:35;;;;;;;0.95;0.60;;;13.60;99.90;;;;;;5052865;28;20211;-79
2022/07/17 13:09:05;;;;;;;1.15;0.60;;;13.50;99.90;;;;;;5051968;28;20196;-79